KFAR/FAR METAR and TAF weather

Enter ICAO airport designator
Station Type Date Time Source
KFAR METAR 2024/02/26 17:53 UTC NOAA

KFAR 261753Z 18012KT 10SM CLR 10/01 A2933 RMK AO2 SLP938 T01000011 10100 20028 56013


Station Type Date Time Source
KFAR Decoded METAR 2024/02/26 17:53 UTC NOAA

HECTOR INTERNATIONAL AIRPORT , ND, United States (KFAR) 46-56N 096-49W 277M
Feb 26, 2024 - 12:53 PM EST / 2024.02.26 1753 UTC
Wind: from the S (180 degrees) at 14 MPH (12 KT):0
Visibility: 10 mile(s):0
Sky conditions: clear
Temperature: 50.0 F (10.0 C)
Dew Point: 34.0 F (1.1 C)
Relative Humidity: 53%
Pressure (altimeter): 29.33 in. Hg (993 hPa)
Pressure tendency: 0.04 inches (1.3 hPa) lower than three hours ago
ob: KFAR 261753Z 18012KT 10SM CLR 10/01 A2933 RMK AO2 SLP938 T01000011 10100 20028 56013
cycle: 18

Station Type Date Time Source
KFAR TAF 2024/02/26 18:36 UTC NOAA